Time;durP1;ratioP1;P1;durP2;ratioP2;P2;SDS_P1;SDS_P2;PMS_P1;PMS_P2;Temp;Humidity;BMP_temperature;BMP_pressure;BME280_temperature;BME280_humidity;BME280_pressure;Samples;Min_cycle;Max_cycle;Signal;HPM_P1;HPM_P2
2022/06/04 00:00:25;;;;;;;31.25;13.98;;;;;;;;;;4980930;28;20090;-56
2022/06/04 00:02:58;;;;;;;31.25;13.38;;;;;;;;;;4984562;28;20061;-51
2022/06/04 00:05:28;;;;;;;33.20;13.32;;;;;;;;;;4984220;28;20520;-52
2022/06/04 00:07:56;;;;;;;26.40;13.02;;;;;;;;;;4981598;28;20138;-53
2022/06/04 00:16:12;;;;;;;32.10;13.00;;;;;;;;;;4983096;28;20052;-51
2022/06/04 00:18:39;;;;;;;36.38;13.95;;;;;;;;;;4982946;28;20129;-62
2022/06/04 00:21:07;;;;;;;36.63;14.15;;;;;;;;;;4982320;28;20584;-58
2022/06/04 00:23:40;;;;;;;27.90;13.13;;;;;;;;;;4983523;28;20101;-58
2022/06/04 00:26:07;;;;;;;29.73;13.10;;;;;;;;;;4979725;28;20089;-58
2022/06/04 00:28:34;;;;;;;29.77;14.55;;;;;;;;;;4980837;28;20059;-58
2022/06/04 00:31:14;;;;;;;37.55;13.25;;;;;;;;;;4980726;28;20169;-58
2022/06/04 00:33:47;;;;;;;29.92;13.82;;;;;;;;;;4980622;28;20061;-58
2022/06/04 00:36:21;;;;;;;33.97;15.88;;;;;;;;;;4979045;28;20086;-56
2022/06/04 00:38:48;;;;;;;28.90;14.15;;;;;;;;;;4979056;28;20046;-55
2022/06/04 00:41:20;;;;;;;36.42;14.70;;;;;;;;;;4982548;28;20108;-61
2022/06/04 00:44:01;;;;;;;27.00;13.23;;;;;;;;;;4983717;28;20143;-62
2022/06/04 00:46:39;;;;;;;30.00;14.02;;;;;;;;;;4982233;28;20102;-61
2022/06/04 00:49:16;;;;;;;40.45;14.88;;;;;;;;;;4981080;28;20046;-61
2022/06/04 00:51:45;;;;;;;40.30;15.85;;;;;;;;;;4979979;28;20094;-61
2022/06/04 00:54:12;;;;;;;30.95;15.30;;;;;;;;;;4982409;28;20406;-61
2022/06/04 00:56:52;;;;;;;36.40;14.98;;;;;;;;;;4981061;28;20145;-54
2022/06/04 00:59:24;;;;;;;34.33;15.80;;;;;;;;;;4981435;28;20469;-54
2022/06/04 01:01:58;;;;;;;41.50;15.73;;;;;;;;;;4981041;28;20112;-55
2022/06/04 01:04:47;;;;;;;36.10;15.57;;;;;;;;;;4980996;28;20058;-56
2022/06/04 01:07:21;;;;;;;38.28;16.90;;;;;;;;;;4979653;28;20055;-56
2022/06/04 01:09:58;;;;;;;52.88;17.10;;;;;;;;;;4979229;28;20133;-56
2022/06/04 01:12:32;;;;;;;35.50;16.17;;;;;;;;;;4980343;28;20078;-56
2022/06/04 01:15:10;;;;;;;47.45;17.38;;;;;;;;;;4980083;28;20090;-49
2022/06/04 01:17:53;;;;;;;45.78;18.02;;;;;;;;;;4978314;28;20477;-52
2022/06/04 01:20:28;;;;;;;49.28;19.33;;;;;;;;;;4979878;28;20163;-52
2022/06/04 01:23:19;;;;;;;48.28;18.58;;;;;;;;;;4978948;28;20077;-49
2022/06/04 01:25:56;;;;;;;46.90;18.13;;;;;;;;;;4978488;28;20517;-51
2022/06/04 01:28:29;;;;;;;51.72;18.98;;;;;;;;;;4979030;28;20085;-53
2022/06/04 01:30:57;;;;;;;51.75;19.77;;;;;;;;;;4980300;28;20082;-50
2022/06/04 01:33:36;;;;;;;49.83;19.40;;;;;;;;;;4981328;28;20093;-58
2022/06/04 01:36:12;;;;;;;51.67;18.85;;;;;;;;;;4982167;28;20062;-62
2022/06/04 01:38:51;;;;;;;47.65;19.63;;;;;;;;;;4981185;28;21510;-59
2022/06/04 01:41:33;;;;;;;51.45;20.17;;;;;;;;;;4986230;28;20121;-58
2022/06/04 01:44:02;;;;;;;49.78;19.85;;;;;;;;;;4979001;28;20089;-59
2022/06/04 01:46:40;;;;;;;51.40;21.38;;;;;;;;;;4981094;28;20086;-59
2022/06/04 01:49:09;;;;;;;58.42;21.10;;;;;;;;;;4982445;28;20148;-59
2022/06/04 01:51:44;;;;;;;69.05;21.98;;;;;;;;;;4978827;28;20321;-59
2022/06/04 01:54:23;;;;;;;63.55;21.40;;;;;;;;;;4979435;28;20498;-65
2022/06/04 01:57:05;;;;;;;53.95;20.85;;;;;;;;;;4982021;28;20046;-59
2022/06/04 01:59:35;;;;;;;68.85;21.58;;;;;;;;;;4978364;28;20085;-59
2022/06/04 02:02:10;;;;;;;49.55;19.52;;;;;;;;;;4977895;28;20070;-59
2022/06/04 02:04:38;;;;;;;57.45;19.55;;;;;;;;;;4974246;28;20129;-59
2022/06/04 02:09:58;;;;;;;60.50;21.52;;;;;;;;;;4980012;28;19922;-59
2022/06/04 02:12:25;;;;;;;61.75;22.58;;;;;;;;;;4976935;28;20469;-49
2022/06/04 02:14:51;;;;;;;68.78;24.35;;;;;;;;;;4974909;28;20100;-54
2022/06/04 02:17:25;;;;;;;59.00;21.27;;;;;;;;;;4980564;28;20490;-56
2022/06/04 02:19:52;;;;;;;72.70;24.80;;;;;;;;;;4978884;28;20113;-54
2022/06/04 02:22:19;;;;;;;65.70;25.20;;;;;;;;;;4980329;28;20387;-56
2022/06/04 02:24:51;;;;;;;61.85;22.85;;;;;;;;;;4980251;28;20136;-55
2022/06/04 02:27:18;;;;;;;70.10;22.95;;;;;;;;;;4978221;28;20494;-56
2022/06/04 02:29:44;;;;;;;41.42;16.10;;;;;;;;;;4979412;28;20089;-57
2022/06/04 02:32:49;;;;;;;49.80;20.23;;;;;;;;;;4978287;28;20078;-59
2022/06/04 02:35:27;;;;;;;53.08;20.10;;;;;;;;;;4982322;28;20140;-59
2022/06/04 02:38:00;;;;;;;39.90;18.15;;;;;;;;;;4977124;28;20089;-59
2022/06/04 02:40:34;;;;;;;37.40;16.65;;;;;;;;;;4980776;28;20105;-58
2022/06/04 02:43:14;;;;;;;46.65;19.45;;;;;;;;;;4975657;28;20086;-58
2022/06/04 02:45:44;;;;;;;53.03;20.27;;;;;;;;;;4980429;28;20050;-58
2022/06/04 02:48:25;;;;;;;42.78;16.05;;;;;;;;;;4981744;28;20059;-58
2022/06/04 02:50:57;;;;;;;46.90;19.65;;;;;;;;;;4976597;28;20074;-55
2022/06/04 02:53:32;;;;;;;49.38;19.38;;;;;;;;;;4982940;28;20133;-55
2022/06/04 02:56:08;;;;;;;59.17;20.73;;;;;;;;;;4980311;28;21004;-55
2022/06/04 02:58:42;;;;;;;52.83;22.05;;;;;;;;;;4976865;28;20091;-54
2022/06/04 03:01:09;;;;;;;65.30;21.20;;;;;;;;;;4977737;28;20102;-57
2022/06/04 03:03:37;;;;;;;66.82;22.65;;;;;;;;;;4977934;28;20050;-55
2022/06/04 03:06:20;;;;;;;63.55;22.48;;;;;;;;;;4977858;28;20073;-56
2022/06/04 03:08:47;;;;;;;60.05;21.45;;;;;;;;;;4977744;28;20141;-61
2022/06/04 03:11:20;;;;;;;53.40;21.08;;;;;;;;;;4977479;28;20089;-53
2022/06/04 03:13:47;;;;;;;57.28;21.83;;;;;;;;;;4975633;28;20498;-59
2022/06/04 03:16:14;;;;;;;49.75;21.10;;;;;;;;;;4977647;28;20077;-59
2022/06/04 03:18:48;;;;;;;55.70;20.45;;;;;;;;;;4978980;28;20051;-59
2022/06/04 03:21:14;;;;;;;51.97;20.63;;;;;;;;;;4978965;28;20081;-59
2022/06/04 03:23:41;;;;;;;46.35;19.00;;;;;;;;;;4976938;28;20089;-59
2022/06/04 03:26:14;;;;;;;49.78;19.95;;;;;;;;;;4978818;28;20086;-59
2022/06/04 03:28:40;;;;;;;59.40;21.58;;;;;;;;;;4979978;28;20134;-58
2022/06/04 03:31:06;;;;;;;60.50;21.15;;;;;;;;;;4978109;28;20113;-57
2022/06/04 03:33:46;;;;;;;61.50;22.33;;;;;;;;;;4982682;28;20520;-56
2022/06/04 03:36:13;;;;;;;58.33;21.42;;;;;;;;;;4978735;28;20054;-54
2022/06/04 03:38:39;;;;;;;59.85;21.35;;;;;;;;;;4980013;28;20085;-54
2022/06/04 03:41:13;;;;;;;58.42;21.05;;;;;;;;;;4976663;28;20506;-53
2022/06/04 03:43:39;;;;;;;51.33;20.45;;;;;;;;;;4979622;28;20090;-56
2022/06/04 03:46:06;;;;;;;53.28;19.42;;;;;;;;;;4981576;28;20050;-53
2022/06/04 03:48:39;;;;;;;50.28;20.17;;;;;;;;;;4979199;28;20141;-58
2022/06/04 03:51:05;;;;;;;54.60;20.00;;;;;;;;;;4977061;28;20572;-46
2022/06/04 03:53:32;;;;;;;51.85;19.33;;;;;;;;;;4980190;28;20081;-49
2022/06/04 03:56:05;;;;;;;47.90;17.88;;;;;;;;;;4978391;28;20100;-48
2022/06/04 03:58:32;;;;;;;52.53;20.30;;;;;;;;;;4979205;28;20058;-45
2022/06/04 04:00:58;;;;;;;43.17;19.00;;;;;;;;;;4980077;28;20058;-50
2022/06/04 04:03:31;;;;;;;51.28;19.42;;;;;;;;;;4979812;28;20058;-49
2022/06/04 04:05:57;;;;;;;53.63;19.35;;;;;;;;;;4981314;28;20047;-49
2022/06/04 04:08:24;;;;;;;48.70;18.88;;;;;;;;;;4977834;28;20910;-58
2022/06/04 04:10:58;;;;;;;45.33;18.33;;;;;;;;;;4976274;28;20084;-60
2022/06/04 04:13:24;;;;;;;41.72;18.15;;;;;;;;;;4978075;28;20857;-60
2022/06/04 04:15:51;;;;;;;39.88;16.85;;;;;;;;;;4976378;28;20273;-60
2022/06/04 04:18:24;;;;;;;40.83;16.10;;;;;;;;;;4976110;28;20067;-60
2022/06/04 04:20:50;;;;;;;32.08;15.70;;;;;;;;;;4978395;28;20096;-60
2022/06/04 04:23:17;;;;;;;46.33;16.98;;;;;;;;;;4977285;28;20125;-60
2022/06/04 04:25:50;;;;;;;39.72;15.25;;;;;;;;;;4982173;28;20180;-47
2022/06/04 04:28:16;;;;;;;43.53;16.35;;;;;;;;;;4983377;28;20153;-58
2022/06/04 04:30:43;;;;;;;31.33;13.82;;;;;;;;;;4979486;28;20094;-58
2022/06/04 04:33:22;;;;;;;40.88;17.15;;;;;;;;;;4983181;28;20524;-58
2022/06/04 04:35:55;;;;;;;37.25;15.43;;;;;;;;;;4979974;28;20120;-58
2022/06/04 04:38:29;;;;;;;38.65;15.82;;;;;;;;;;4982112;28;20141;-57
2022/06/04 04:40:55;;;;;;;42.65;15.98;;;;;;;;;;4978194;28;20081;-58
2022/06/04 04:43:22;;;;;;;35.92;15.35;;;;;;;;;;4983624;28;20058;-58
2022/06/04 04:46:02;;;;;;;32.78;14.20;;;;;;;;;;4979749;28;20525;-66
2022/06/04 04:48:29;;;;;;;37.40;15.65;;;;;;;;;;4982861;28;20050;-47
2022/06/04 04:51:02;;;;;;;33.75;14.98;;;;;;;;;;4980796;28;20078;-48
2022/06/04 04:53:28;;;;;;;33.83;15.48;;;;;;;;;;4980572;28;20090;-48
2022/06/04 04:55:55;;;;;;;39.70;14.98;;;;;;;;;;4978706;28;20078;-47
2022/06/04 04:58:28;;;;;;;48.97;14.70;;;;;;;;;;4981172;28;20066;-46
2022/06/04 05:00:54;;;;;;;37.13;14.68;;;;;;;;;;4980154;28;20077;-50
2022/06/04 05:03:21;;;;;;;37.88;13.88;;;;;;;;;;4981218;28;20089;-54
2022/06/04 05:06:01;;;;;;;29.80;13.50;;;;;;;;;;4980206;28;20059;-59
2022/06/04 05:08:27;;;;;;;37.10;14.27;;;;;;;;;;4978435;28;20096;-52
2022/06/04 05:10:53;;;;;;;35.25;14.75;;;;;;;;;;4978664;28;20619;-49
2022/06/04 05:13:27;;;;;;;43.88;14.85;;;;;;;;;;4980670;28;20042;-50
2022/06/04 05:15:53;;;;;;;33.45;13.23;;;;;;;;;;4977531;28;20130;-49
2022/06/04 05:18:20;;;;;;;33.22;12.70;;;;;;;;;;4985143;28;20104;-47
2022/06/04 05:20:53;;;;;;;33.17;11.52;;;;;;;;;;4979587;28;20097;-47
2022/06/04 05:23:19;;;;;;;33.13;13.38;;;;;;;;;;4980293;28;20209;-55
2022/06/04 05:25:46;;;;;;;39.20;11.40;;;;;;;;;;4981962;28;20105;-49
2022/06/04 05:28:20;;;;;;;31.05;11.63;;;;;;;;;;4979581;28;20058;-51
2022/06/04 05:30:46;;;;;;;26.60;10.65;;;;;;;;;;4977397;28;20129;-50
2022/06/04 05:33:13;;;;;;;28.42;10.57;;;;;;;;;;4980829;28;20065;-49
2022/06/04 05:35:46;;;;;;;30.88;11.85;;;;;;;;;;4981357;28;20454;-51
2022/06/04 05:38:12;;;;;;;33.33;10.70;;;;;;;;;;4980556;28;20086;-48
2022/06/04 05:40:39;;;;;;;30.48;10.05;;;;;;;;;;4979892;28;20128;-65
2022/06/04 05:43:12;;;;;;;24.90;9.77;;;;;;;;;;4980729;28;20137;-50
2022/06/04 05:45:38;;;;;;;23.60;9.67;;;;;;;;;;4978857;28;20137;-56
2022/06/04 05:48:05;;;;;;;25.25;9.07;;;;;;;;;;4979964;28;20063;-56
2022/06/04 05:50:38;;;;;;;19.10;8.35;;;;;;;;;;4983998;28;20050;-56
2022/06/04 05:53:04;;;;;;;21.38;9.13;;;;;;;;;;4982343;28;20053;-56
2022/06/04 05:55:31;;;;;;;18.48;7.40;;;;;;;;;;4980733;28;20058;-54
2022/06/04 05:58:04;;;;;;;22.13;7.97;;;;;;;;;;4981025;28;20070;-57
2022/06/04 06:00:30;;;;;;;24.92;7.82;;;;;;;;;;4979305;28;20054;-56
2022/06/04 06:02:57;;;;;;;20.67;7.95;;;;;;;;;;4980671;28;20129;-47
2022/06/04 06:05:31;;;;;;;22.42;8.63;;;;;;;;;;4980148;28;20058;-55
2022/06/04 06:08:05;;;;;;;16.35;6.80;;;;;;;;;;4978274;28;20097;-56
2022/06/04 06:10:50;;;;;;;24.00;8.45;;;;;;;;;;4982372;28;20136;-56
2022/06/04 06:13:17;;;;;;;18.05;7.75;;;;;;;;;;4981057;28;20054;-52
2022/06/04 06:15:51;;;;;;;17.35;8.75;;;;;;;;;;4977263;28;20089;-54
2022/06/04 06:18:17;;;;;;;18.45;7.88;;;;;;;;;;4978739;28;20097;-55
2022/06/04 06:20:44;;;;;;;23.17;8.10;;;;;;;;;;4978374;28;20050;-66
2022/06/04 06:23:21;;;;;;;25.42;8.32;;;;;;;;;;4980671;28;20133;-57
2022/06/04 06:25:47;;;;;;;22.95;9.20;;;;;;;;;;4976609;28;20162;-57
2022/06/04 06:28:14;;;;;;;21.55;8.25;;;;;;;;;;4974548;28;20078;-55
2022/06/04 06:30:52;;;;;;;;;;;;;;;;;;4975114;28;20133;-56
2022/06/04 06:33:25;;;;;;;17.95;7.85;;;;;;;;;;4974538;28;19925;-55
2022/06/04 06:36:00;;;;;;;20.50;8.30;;;;;;;;;;4977139;28;20510;-57
2022/06/04 06:38:27;;;;;;;20.55;8.25;;;;;;;;;;4979971;28;20078;-55
2022/06/04 06:40:54;;;;;;;18.77;7.95;;;;;;;;;;4977581;28;20090;-59
2022/06/04 06:43:46;;;;;;;20.50;7.75;;;;;;;;;;4978059;28;20150;-57
2022/06/04 06:46:14;;;;;;;21.63;7.63;;;;;;;;;;4977327;28;20081;-54
2022/06/04 06:48:49;;;;;;;19.58;7.78;;;;;;;;;;4976626;28;20058;-56
2022/06/04 06:51:21;;;;;;;17.65;6.97;;;;;;;;;;4979335;28;20532;-56
2022/06/04 06:53:47;;;;;;;19.52;8.00;;;;;;;;;;4978264;28;20085;-58
2022/06/04 06:56:25;;;;;;;18.23;7.90;;;;;;;;;;4978929;28;20054;-55
2022/06/04 06:58:52;;;;;;;15.65;7.10;;;;;;;;;;4978378;28;20085;-48
2022/06/04 07:01:18;;;;;;;18.90;7.82;;;;;;;;;;4976958;28;20410;-56
2022/06/04 07:03:53;;;;;;;15.13;6.90;;;;;;;;;;4973469;28;20529;-57
2022/06/04 07:06:36;;;;;;;17.70;8.13;;;;;;;;;;4980319;28;20141;-55
2022/06/04 07:09:18;;;;;;;15.90;7.05;;;;;;;;;;4980730;28;20144;-56
2022/06/04 07:11:45;;;;;;;16.48;7.22;;;;;;;;;;4981953;28;20572;-57
2022/06/04 07:14:18;;;;;;;15.85;7.35;;;;;;;;;;4977473;28;20094;-56
2022/06/04 07:16:45;;;;;;;15.00;6.88;;;;;;;;;;4977153;28;20078;-50
2022/06/04 07:19:13;;;;;;;14.02;7.13;;;;;;;;;;4978442;28;20062;-57
2022/06/04 07:21:46;;;;;;;17.02;6.97;;;;;;;;;;4977162;28;20081;-49
2022/06/04 07:24:12;;;;;;;16.02;7.47;;;;;;;;;;4979787;28;20086;-49
2022/06/04 07:26:39;;;;;;;21.95;7.57;;;;;;;;;;4978394;28;20081;-48
2022/06/04 07:29:13;;;;;;;13.90;6.80;;;;;;;;;;4980124;28;20046;-47
2022/06/04 07:31:40;;;;;;;12.77;6.90;;;;;;;;;;4978331;28;20081;-47
2022/06/04 07:34:12;;;;;;;14.02;6.10;;;;;;;;;;4978451;28;20129;-50
2022/06/04 07:36:50;;;;;;;13.32;6.28;;;;;;;;;;4980320;28;20188;-54
2022/06/04 07:39:19;;;;;;;13.27;6.32;;;;;;;;;;4975166;28;20134;-56
2022/06/04 07:41:54;;;;;;;14.70;6.18;;;;;;;;;;4977661;28;20113;-55
2022/06/04 07:44:21;;;;;;;15.68;6.05;;;;;;;;;;4979077;28;20073;-55
2022/06/04 07:46:48;;;;;;;;;;;;;;;;;;4978558;28;20501;-55
2022/06/04 07:49:21;;;;;;;10.75;5.50;;;;;;;;;;4978104;28;20381;-57
2022/06/04 07:51:48;;;;;;;13.23;6.55;;;;;;;;;;4976716;28;20078;-52
2022/06/04 07:54:15;;;;;;;10.23;5.70;;;;;;;;;;4978962;28;20085;-47
2022/06/04 07:56:50;;;;;;;11.73;6.07;;;;;;;;;;4977097;28;20097;-55
2022/06/04 07:59:17;;;;;;;11.50;5.82;;;;;;;;;;4983280;28;20101;-48
2022/06/04 08:01:44;;;;;;;16.23;5.80;;;;;;;;;;4983727;28;20089;-47
2022/06/04 08:04:17;;;;;;;14.50;5.47;;;;;;;;;;4981244;28;20158;-49
2022/06/04 08:06:44;;;;;;;10.35;5.20;;;;;;;;;;4979773;28;20055;-49
2022/06/04 08:09:11;;;;;;;10.27;5.22;;;;;;;;;;4977048;28;20132;-48
2022/06/04 08:11:48;;;;;;;10.60;5.15;;;;;;;;;;4983143;28;20085;-49
2022/06/04 08:14:16;;;;;;;9.18;5.07;;;;;;;;;;4981124;28;20101;-51
2022/06/04 08:16:45;;;;;;;11.75;5.15;;;;;;;;;;4980203;28;20058;-57
2022/06/04 08:19:19;;;;;;;17.35;5.60;;;;;;;;;;4980054;28;20129;-56
2022/06/04 08:21:46;;;;;;;8.63;5.00;;;;;;;;;;4983359;28;20050;-56
2022/06/04 08:24:13;;;;;;;9.90;4.95;;;;;;;;;;4980592;28;20110;-55
2022/06/04 08:26:48;;;;;;;9.13;5.07;;;;;;;;;;4981729;28;20137;-55
2022/06/04 08:29:15;;;;;;;10.10;4.97;;;;;;;;;;4983477;28;20569;-57
2022/06/04 08:31:41;;;;;;;12.60;4.93;;;;;;;;;;4980357;28;20691;-56
2022/06/04 08:34:28;;;;;;;8.07;4.28;;;;;;;;;;4979841;28;20059;-56
2022/06/04 08:36:54;;;;;;;7.95;4.25;;;;;;;;;;4979925;28;20071;-46
2022/06/04 08:39:28;;;;;;;10.00;4.68;;;;;;;;;;4985600;28;20089;-46
2022/06/04 08:42:01;;;;;;;10.27;4.82;;;;;;;;;;4982170;28;20113;-47
2022/06/04 08:44:37;;;;;;;4.82;3.53;;;;;;;;;;4983478;28;20117;-48
2022/06/04 08:47:10;;;;;;;5.72;3.80;;;;;;;;;;4980112;28;20046;-50
2022/06/04 08:49:36;;;;;;;7.75;3.60;;;;;;;;;;4979438;28;20161;-52
2022/06/04 08:52:10;;;;;;;7.25;3.40;;;;;;;;;;4980152;28;20094;-48
2022/06/04 08:57:54;;;;;;;7.10;3.75;;;;;;;;;;4980605;28;20521;-58
2022/06/04 09:00:33;;;;;;;6.15;3.53;;;;;;;;;;4964906;28;20133;-56
2022/06/04 09:03:00;;;;;;;6.65;3.63;;;;;;;;;;4979763;28;20117;-56
2022/06/04 09:05:49;;;;;;;6.90;4.40;;;;;;;;;;4982421;28;20077;-58
2022/06/04 09:08:32;;;;;;;7.05;3.45;;;;;;;;;;4980303;28;20086;-58
2022/06/04 09:10:59;;;;;;;8.10;3.80;;;;;;;;;;4979471;28;20113;-59
2022/06/04 09:13:52;;;;;;;9.30;3.90;;;;;;;;;;4981441;28;20062;-59
2022/06/04 09:16:39;;;;;;;8.88;4.03;;;;;;;;;;4956792;28;20142;-51
2022/06/04 09:19:16;;;;;;;7.38;3.25;;;;;;;;;;4978315;28;20074;-52
2022/06/04 09:21:42;;;;;;;5.50;3.08;;;;;;;;;;4979154;28;20117;-51
2022/06/04 09:24:09;;;;;;;5.97;3.50;;;;;;;;;;4978418;28;20086;-54
2022/06/04 09:26:42;;;;;;;6.97;3.05;;;;;;;;;;4980411;28;20297;-51
2022/06/04 09:29:24;;;;;;;6.10;3.20;;;;;;;;;;4978401;28;20086;-49
2022/06/04 09:32:04;;;;;;;7.78;3.75;;;;;;;;;;4977821;28;20561;-60
2022/06/04 09:34:39;;;;;;;8.90;3.72;;;;;;;;;;4976248;28;20055;-58
2022/06/04 09:37:13;;;;;;;6.85;3.40;;;;;;;;;;4978664;28;20088;-58
2022/06/04 09:39:41;;;;;;;7.13;3.40;;;;;;;;;;4977620;28;20551;-58
2022/06/04 09:42:13;;;;;;;8.80;3.08;;;;;;;;;;4978882;28;20125;-58
2022/06/04 09:44:51;;;;;;;7.32;3.25;;;;;;;;;;4975745;28;20050;-59
2022/06/04 09:47:20;;;;;;;4.93;2.95;;;;;;;;;;4975783;28;20145;-59
2022/06/04 09:49:59;;;;;;;6.28;2.95;;;;;;;;;;4979160;28;20082;-67
2022/06/04 09:52:29;;;;;;;7.30;3.08;;;;;;;;;;4978038;28;20126;-59
2022/06/04 09:55:12;;;;;;;7.63;2.88;;;;;;;;;;4980255;28;20054;-59
2022/06/04 09:57:38;;;;;;;4.68;2.97;;;;;;;;;;4980338;28;20106;-60
2022/06/04 10:00:20;;;;;;;4.30;2.72;;;;;;;;;;4982542;28;20081;-59
2022/06/04 10:03:11;;;;;;;5.07;2.60;;;;;;;;;;4979392;28;20504;-59
2022/06/04 10:05:48;;;;;;;8.32;2.60;;;;;;;;;;4979302;28;20077;-59
2022/06/04 10:08:15;;;;;;;5.10;3.00;;;;;;;;;;4978011;28;20050;-58
2022/06/04 10:10:42;;;;;;;14.27;3.25;;;;;;;;;;4980913;28;20047;-47
2022/06/04 10:16:24;;;;;;;5.75;2.65;;;;;;;;;;4976122;28;20081;-58
2022/06/04 10:19:00;;;;;;;4.85;3.08;;;;;;;;;;4975452;28;20047;-58
2022/06/04 10:21:28;;;;;;;4.55;2.83;;;;;;;;;;4978040;28;20090;-58
2022/06/04 10:23:57;;;;;;;14.00;3.28;;;;;;;;;;4978081;28;20089;-58
2022/06/04 10:26:40;;;;;;;4.43;2.45;;;;;;;;;;4979345;28;20071;-58
2022/06/04 10:29:13;;;;;;;4.50;2.70;;;;;;;;;;4978747;28;20069;-61
2022/06/04 10:31:59;;;;;;;7.78;2.88;;;;;;;;;;4976805;28;20483;-58
2022/06/04 10:34:45;;;;;;;8.48;3.13;;;;;;;;;;4975486;28;20054;-57
2022/06/04 10:37:42;;;;;;;9.18;2.83;;;;;;;;;;4977521;28;20105;-58
2022/06/04 10:43:30;;;;;;;8.48;2.55;;;;;;;;;;5086211;23;20508;-47
2022/06/04 10:46:06;;;;;;;4.53;2.65;;;;;;;;;;4972708;28;20054;-49
2022/06/04 10:48:38;;;;;;;4.60;2.67;;;;;;;;;;4975198;28;20073;-47
2022/06/04 10:51:28;;;;;;;4.90;2.40;;;;;;;;;;4973205;28;20141;-49
2022/06/04 10:54:10;;;;;;;4.47;2.67;;;;;;;;;;4976457;28;20062;-49
2022/06/04 10:56:46;;;;;;;4.03;2.53;;;;;;;;;;4974730;28;20657;-48
2022/06/04 10:59:12;;;;;;;3.20;2.22;;;;;;;;;;4977761;28;21258;-50
2022/06/04 11:01:43;;;;;;;3.28;2.20;;;;;;;;;;4976902;28;20074;-49
2022/06/04 11:04:16;;;;;;;7.47;2.65;;;;;;;;;;4977094;28;20058;-49
2022/06/04 11:06:49;;;;;;;6.82;2.75;;;;;;;;;;4972111;28;20774;-51
2022/06/04 11:09:17;;;;;;;5.78;2.70;;;;;;;;;;4970942;28;20671;-48
2022/06/04 11:11:54;;;;;;;5.80;2.25;;;;;;;;;;4966323;28;20134;-52
2022/06/04 11:14:39;;;;;;;7.57;2.80;;;;;;;;;;4975359;28;20134;-47
2022/06/04 11:17:15;;;;;;;8.73;2.40;;;;;;;;;;4976093;28;20517;-59
2022/06/04 11:19:44;;;;;;;7.07;2.42;;;;;;;;;;4978099;28;20090;-56
2022/06/04 11:22:16;;;;;;;5.07;2.53;;;;;;;;;;4976766;28;20093;-48
2022/06/04 11:25:07;;;;;;;4.20;2.75;;;;;;;;;;4975257;28;20054;-46
2022/06/04 11:27:39;;;;;;;7.18;2.72;;;;;;;;;;4975508;28;20426;-48
2022/06/04 11:30:12;;;;;;;;;;;;;;;;;;4978120;28;20098;-51
2022/06/04 11:32:48;;;;;;;6.00;2.60;;;;;;;;;;4978472;28;19957;-51
2022/06/04 11:35:38;;;;;;;4.00;2.38;;;;;;;;;;4979326;28;20138;-45
2022/06/04 11:38:04;;;;;;;9.48;2.97;;;;;;;;;;4979336;28;20062;-47
2022/06/04 11:40:44;;;;;;;4.65;2.75;;;;;;;;;;4978431;28;20397;-46
2022/06/04 11:43:34;;;;;;;4.93;2.45;;;;;;;;;;4694266;28;8247429;-49
2022/06/04 11:46:08;;;;;;;4.47;2.60;;;;;;;;;;4979015;28;20082;-51
2022/06/04 11:48:34;;;;;;;5.00;2.27;;;;;;;;;;4979488;28;20089;-48
2022/06/04 11:51:08;;;;;;;6.93;2.70;;;;;;;;;;4980592;28;20164;-46
2022/06/04 11:53:56;;;;;;;5.72;2.17;;;;;;;;;;4980937;28;20062;-48
2022/06/04 11:56:37;;;;;;;6.80;2.40;;;;;;;;;;4979167;28;20050;-61
2022/06/04 11:59:11;;;;;;;6.90;2.10;;;;;;;;;;4979610;28;20090;-56
2022/06/04 12:01:45;;;;;;;4.60;2.27;;;;;;;;;;4979385;28;20182;-57
2022/06/04 12:04:27;;;;;;;5.05;2.20;;;;;;;;;;4983521;28;20309;-57
2022/06/04 12:06:58;;;;;;;5.22;2.45;;;;;;;;;;4979494;28;20086;-56
2022/06/04 12:09:39;;;;;;;7.07;2.75;;;;;;;;;;4980483;28;20074;-53
2022/06/04 12:12:12;;;;;;;4.22;2.50;;;;;;;;;;4981358;28;20051;-55
2022/06/04 12:15:04;;;;;;;5.25;2.58;;;;;;;;;;4978953;28;20082;-60
2022/06/04 12:17:39;;;;;;;9.85;2.92;;;;;;;;;;4982760;28;20054;-49
2022/06/04 12:26:34;;;;;;;5.93;2.92;;;;;;;;;;4978961;28;20046;-50
2022/06/04 12:29:20;;;;;;;6.80;3.22;;;;;;;;;;4984127;28;20078;-52
2022/06/04 12:31:57;;;;;;;6.25;3.20;;;;;;;;;;4979246;28;20145;-49
2022/06/04 12:34:24;;;;;;;3.83;2.92;;;;;;;;;;4984122;28;20073;-48
2022/06/04 12:36:52;;;;;;;6.60;3.10;;;;;;;;;;4983163;28;20738;-57
2022/06/04 12:39:29;;;;;;;4.53;2.90;;;;;;;;;;4980884;28;20521;-57
2022/06/04 12:42:14;;;;;;;13.05;3.20;;;;;;;;;;4982261;28;20103;-57
2022/06/04 12:44:55;;;;;;;5.43;3.00;;;;;;;;;;4974326;28;20082;-56
2022/06/04 12:47:30;;;;;;;7.30;3.20;;;;;;;;;;4976288;28;20129;-55
2022/06/04 12:50:07;;;;;;;7.45;3.40;;;;;;;;;;4981055;28;20632;-58
2022/06/04 12:52:39;;;;;;;7.65;3.60;;;;;;;;;;4974817;28;20141;-59
2022/06/04 12:55:16;;;;;;;8.85;3.63;;;;;;;;;;4978819;28;20156;-48
2022/06/04 12:57:45;;;;;;;7.22;3.60;;;;;;;;;;4978934;28;20145;-45
2022/06/04 13:00:24;;;;;;;8.70;3.95;;;;;;;;;;4976707;28;20439;-48
2022/06/04 13:03:06;;;;;;;9.07;3.90;;;;;;;;;;4975269;28;20049;-50
2022/06/04 13:05:57;;;;;;;7.00;4.05;;;;;;;;;;4979605;28;20082;-47
2022/06/04 13:08:30;;;;;;;6.80;3.47;;;;;;;;;;4976841;28;20139;-49
2022/06/04 13:11:09;;;;;;;10.27;4.20;;;;;;;;;;4982136;28;20046;-73
2022/06/04 13:14:00;;;;;;;8.13;4.18;;;;;;;;;;4980365;28;20149;-72
2022/06/04 13:16:34;;;;;;;7.78;4.07;;;;;;;;;;4979076;28;20082;-59
2022/06/04 13:19:03;;;;;;;8.27;4.47;;;;;;;;;;4977058;28;20058;-59
2022/06/04 13:21:32;;;;;;;8.27;4.10;;;;;;;;;;4980774;28;20058;-59
2022/06/04 13:24:12;;;;;;;8.98;4.47;;;;;;;;;;4977713;28;20070;-58
2022/06/04 13:26:48;;;;;;;9.32;4.93;;;;;;;;;;4977976;28;20109;-59
2022/06/04 13:29:28;;;;;;;8.30;4.55;;;;;;;;;;4978147;28;20513;-47
2022/06/04 13:31:56;;;;;;;10.18;5.05;;;;;;;;;;4982618;28;20058;-57
2022/06/04 13:34:31;;;;;;;8.38;4.43;;;;;;;;;;4981677;28;20078;-50
2022/06/04 13:36:59;;;;;;;10.88;4.32;;;;;;;;;;4983611;28;20050;-54
2022/06/04 13:39:26;;;;;;;11.48;4.38;;;;;;;;;;4980051;28;20058;-54
2022/06/04 13:42:09;;;;;;;7.15;4.03;;;;;;;;;;4979603;28;20588;-54
2022/06/04 13:44:53;;;;;;;10.32;4.32;;;;;;;;;;4977490;28;20449;-53
2022/06/04 13:47:29;;;;;;;9.15;4.50;;;;;;;;;;4979651;28;20097;-51
2022/06/04 13:50:22;;;;;;;7.28;4.32;;;;;;;;;;4979228;28;20184;-58
2022/06/04 13:53:00;;;;;;;9.00;4.40;;;;;;;;;;4980218;28;20370;-48
2022/06/04 13:55:38;;;;;;;9.35;4.68;;;;;;;;;;4976149;28;20059;-48
2022/06/04 13:58:17;;;;;;;12.07;4.70;;;;;;;;;;4980246;28;20078;-50
2022/06/04 14:00:47;;;;;;;7.28;4.20;;;;;;;;;;4976378;28;20105;-50
2022/06/04 14:03:22;;;;;;;6.50;3.78;;;;;;;;;;4976696;28;20078;-48
2022/06/04 14:05:51;;;;;;;8.27;4.07;;;;;;;;;;4978578;28;20105;-50
2022/06/04 14:08:41;;;;;;;14.43;3.80;;;;;;;;;;4978816;28;20088;-51
2022/06/04 14:11:17;;;;;;;8.65;3.90;;;;;;;;;;4975502;28;20533;-55
2022/06/04 14:13:49;;;;;;;12.60;4.43;;;;;;;;;;4980938;28;20074;-45
2022/06/04 14:16:38;;;;;;;12.77;4.53;;;;;;;;;;4976353;28;20527;-46
2022/06/04 14:19:17;;;;;;;7.47;4.38;;;;;;;;;;4974246;28;20421;-44
2022/06/04 14:22:01;;;;;;;7.85;4.40;;;;;;;;;;4977610;28;20113;-47
2022/06/04 14:24:51;;;;;;;7.43;4.13;;;;;;;;;;4982874;28;20089;-44
2022/06/04 14:27:27;;;;;;;9.82;3.70;;;;;;;;;;4972081;28;20090;-48
2022/06/04 14:30:12;;;;;;;6.97;3.97;;;;;;;;;;4974800;28;20050;-52
2022/06/04 14:32:49;;;;;;;5.90;3.22;;;;;;;;;;4972383;28;20058;-53
2022/06/04 14:35:30;;;;;;;5.43;3.42;;;;;;;;;;4979028;28;20046;-52
2022/06/04 14:38:10;;;;;;;8.80;3.28;;;;;;;;;;4978556;28;20047;-54
2022/06/04 14:40:39;;;;;;;5.07;3.25;;;;;;;;;;4980651;28;20058;-53
2022/06/04 14:43:37;;;;;;;5.53;3.03;;;;;;;;;;4975952;28;20565;-53
2022/06/04 14:46:27;;;;;;;4.68;2.85;;;;;;;;;;4978859;28;20062;-53
2022/06/04 14:49:00;;;;;;;5.00;2.72;;;;;;;;;;4980223;28;20074;-55
2022/06/04 14:51:46;;;;;;;4.90;2.70;;;;;;;;;;4980504;28;20062;-73
2022/06/04 14:54:19;;;;;;;6.55;2.80;;;;;;;;;;4978571;28;20114;-71
2022/06/04 14:57:06;;;;;;;3.78;2.90;;;;;;;;;;4980541;28;20082;-71
2022/06/04 14:59:42;;;;;;;5.13;3.10;;;;;;;;;;4978996;28;20470;-72
2022/06/04 15:02:17;;;;;;;5.18;2.88;;;;;;;;;;4978925;28;20051;-71
2022/06/04 15:05:00;;;;;;;5.43;2.90;;;;;;;;;;4978447;28;20413;-47
2022/06/04 15:07:26;;;;;;;7.07;2.97;;;;;;;;;;4976404;28;20560;-45
2022/06/04 15:10:00;;;;;;;5.38;2.60;;;;;;;;;;4977938;28;20073;-46
2022/06/04 15:12:26;;;;;;;4.28;2.63;;;;;;;;;;4979523;28;20094;-45
2022/06/04 15:15:03;;;;;;;8.38;2.80;;;;;;;;;;4977138;28;20093;-46
2022/06/04 15:17:56;;;;;;;5.00;2.30;;;;;;;;;;4974991;28;20707;-46
2022/06/04 15:20:32;;;;;;;3.78;2.45;;;;;;;;;;4980249;28;20054;-46
2022/06/04 15:23:18;;;;;;;3.92;2.28;;;;;;;;;;4978617;28;20611;-50
2022/06/04 15:26:08;;;;;;;5.30;2.38;;;;;;;;;;4978814;28;20113;-52
2022/06/04 15:34:39;;;;;;;4.90;2.25;;;;;;;;;;4978017;28;20062;-59
2022/06/04 15:37:10;;;;;;;5.13;2.28;;;;;;;;;;4977407;28;20054;-59
2022/06/04 15:40:03;;;;;;;4.07;1.90;;;;;;;;;;4977242;28;20112;-58